Milas, Turkey
Current Conditions -  °F | °C
As of 11:20 AM on Saturday 25 Oct 2014 (Local Time) from LTFE Reporting Station
Broken Clouds Broken Clouds  
Wind Chill: 72°   Ceiling: 9000
Heat Index: 72°   Visibility: 6mi
Dew Point: 52°   Wind: 15mph
Humidity: 50%   Direction: 230°SW
Pressure: 29.85"   Gusts: NA
Location:  37.32°N, 27.77°E
Report Text: LTFE 250820Z 23013KT 190V260 9999 SCT030 BKN090 22/11 Q1011 NOSIG
Loading
Personal Weather Stations






























Interactive Weather Map
Tropical Storm Tracking
New forecast layout! Learn more

10-Day Weather Forecast

Advertisements
Track Severe Weather on mobile